Time;durP1;ratioP1;P1;durP2;ratioP2;P2;SDS_P1;SDS_P2;PMS_P1;PMS_P2;Temp;Humidity;BMP_temperature;BMP_pressure;BME280_temperature;BME280_humidity;BME280_pressure;Samples;Min_cycle;Max_cycle;Signal;HPM_P1;HPM_P2
2023/07/01 00:02:17;;;;;;;8.77;5.15;;;;;;;;;;4933673;29;20039;-59
2023/07/01 00:04:43;;;;;;;10.02;4.90;;;;;;;;;;4933947;29;20044;-59
2023/07/01 00:07:09;;;;;;;10.23;5.13;;;;;;;;;;4933038;29;20062;-59
2023/07/01 00:09:35;;;;;;;9.15;4.38;;;;;;;;;;4949614;28;20031;-59
2023/07/01 00:12:03;;;;;;;8.43;4.65;;;;;;;;;;4937838;29;20040;-59
2023/07/01 00:14:29;;;;;;;9.32;4.65;;;;;;;;;;4931398;28;20172;-59
2023/07/01 00:16:55;;;;;;;12.98;4.80;;;;;;;;;;4934328;29;20067;-59
2023/07/01 00:19:21;;;;;;;10.27;5.07;;;;;;;;;;4933579;28;20051;-59
2023/07/01 00:21:47;;;;;;;9.43;4.90;;;;;;;;;;4933005;29;20046;-59
2023/07/01 00:24:13;;;;;;;11.05;4.65;;;;;;;;;;4934102;29;20523;-59
2023/07/01 00:26:39;;;;;;;10.82;4.90;;;;;;;;;;4933695;28;20055;-59
2023/07/01 00:29:05;;;;;;;8.27;4.78;;;;;;;;;;4949096;28;20437;-59
2023/07/01 00:31:32;;;;;;;9.15;4.60;;;;;;;;;;4934258;29;20044;-59
2023/07/01 00:33:59;;;;;;;11.07;4.85;;;;;;;;;;4938532;29;20038;-59
2023/07/01 00:36:28;;;;;;;7.22;4.05;;;;;;;;;;4933325;28;20536;-59
2023/07/01 00:38:54;;;;;;;8.20;4.53;;;;;;;;;;4948360;28;20046;-59
2023/07/01 00:41:20;;;;;;;10.15;4.22;;;;;;;;;;4933352;29;20043;-59
2023/07/01 00:43:46;;;;;;;8.32;4.38;;;;;;;;;;4947042;28;20504;-59
2023/07/01 00:46:13;;;;;;;9.13;4.70;;;;;;;;;;4932455;28;20047;-59
2023/07/01 00:48:40;;;;;;;8.63;4.72;;;;;;;;;;4947711;28;20035;-59
2023/07/01 00:51:06;;;;;;;8.07;4.72;;;;;;;;;;4947080;28;20568;-59
2023/07/01 00:53:33;;;;;;;8.30;4.15;;;;;;;;;;4929476;29;20512;-59
2023/07/01 00:55:59;;;;;;;8.18;4.57;;;;;;;;;;4947319;28;20058;-59
2023/07/01 00:58:25;;;;;;;8.40;4.72;;;;;;;;;;4938515;29;20035;-59
2023/07/01 01:00:51;;;;;;;11.77;4.82;;;;;;;;;;4948132;28;20047;-59
2023/07/01 01:03:28;;;;;;;7.57;4.40;;;;;;;;;;4932270;29;20515;-59
2023/07/01 01:06:19;;;;;;;7.97;4.55;;;;;;;;;;4948286;28;20148;-59
2023/07/01 01:09:00;;;;;;;9.90;4.30;;;;;;;;;;4933398;29;20044;-59
2023/07/01 01:11:31;;;;;;;8.15;3.95;;;;;;;;;;4951249;28;20051;-59
2023/07/01 01:14:02;;;;;;;8.68;4.15;;;;;;;;;;4946784;28;20043;-59
2023/07/01 01:16:29;;;;;;;9.50;4.63;;;;;;;;;;4932801;29;20413;-59
2023/07/01 01:18:58;;;;;;;8.07;4.35;;;;;;;;;;4934234;28;20433;-59
2023/07/01 01:21:28;;;;;;;6.10;4.00;;;;;;;;;;4935111;29;20428;-59
2023/07/01 01:23:58;;;;;;;8.75;4.65;;;;;;;;;;4946929;28;20028;-60
2023/07/01 01:26:27;;;;;;;8.23;4.13;;;;;;;;;;4935574;29;20043;-59
2023/07/01 01:28:55;;;;;;;8.23;4.45;;;;;;;;;;4937106;28;20039;-59
2023/07/01 01:31:21;;;;;;;8.85;4.45;;;;;;;;;;4936996;29;20049;-59
2023/07/01 01:33:50;;;;;;;8.35;4.00;;;;;;;;;;4935933;29;20070;-59
2023/07/01 01:36:36;;;;;;;7.35;4.18;;;;;;;;;;4938888;28;20048;-59
2023/07/01 01:39:05;;;;;;;8.52;4.57;;;;;;;;;;4951300;28;20048;-59
2023/07/01 01:41:53;;;;;;;6.20;4.07;;;;;;;;;;4935305;29;20036;-59
2023/07/01 01:44:37;;;;;;;8.90;4.15;;;;;;;;;;4938541;28;20494;-58
2023/07/01 01:47:05;;;;;;;9.88;4.10;;;;;;;;;;4951031;28;20048;-58
2023/07/01 01:49:33;;;;;;;9.40;4.80;;;;;;;;;;4951725;28;20047;-58
2023/07/01 01:52:03;;;;;;;8.65;4.43;;;;;;;;;;4952453;28;20493;-59
2023/07/01 01:54:30;;;;;;;6.97;4.13;;;;;;;;;;4934300;29;20035;-59
2023/07/01 01:56:56;;;;;;;9.52;4.03;;;;;;;;;;4947004;28;20046;-58
2023/07/01 01:59:22;;;;;;;8.07;4.30;;;;;;;;;;4951939;28;20028;-59
2023/07/01 02:01:49;;;;;;;7.20;4.18;;;;;;;;;;4934186;29;20536;-58
2023/07/01 02:04:15;;;;;;;7.10;3.88;;;;;;;;;;4937209;29;20027;-58
2023/07/01 02:06:41;;;;;;;7.35;4.13;;;;;;;;;;4936546;29;20047;-58
2023/07/01 02:09:07;;;;;;;8.00;4.55;;;;;;;;;;4953043;28;20606;-59
2023/07/01 02:11:33;;;;;;;9.95;4.13;;;;;;;;;;4922549;29;20056;-59
2023/07/01 02:14:00;;;;;;;9.13;3.92;;;;;;;;;;4936453;29;20031;-59
2023/07/01 02:16:27;;;;;;;5.45;3.75;;;;;;;;;;4938041;29;20055;-59
2023/07/01 02:18:53;;;;;;;8.18;4.07;;;;;;;;;;4934774;29;20032;-59
2023/07/01 02:21:19;;;;;;;7.60;4.07;;;;;;;;;;4950698;28;20044;-59
2023/07/01 02:23:45;;;;;;;6.90;4.38;;;;;;;;;;4934742;29;20038;-58
2023/07/01 02:26:11;;;;;;;7.78;4.55;;;;;;;;;;4930126;29;20050;-58
2023/07/01 02:28:38;;;;;;;6.85;4.40;;;;;;;;;;4936287;29;20036;-58
2023/07/01 02:31:05;;;;;;;7.30;4.10;;;;;;;;;;4935506;28;20059;-58
2023/07/01 02:33:31;;;;;;;8.80;4.70;;;;;;;;;;4952680;28;20039;-58
2023/07/01 02:35:57;;;;;;;7.38;4.32;;;;;;;;;;4952576;28;20081;-58
2023/07/01 02:38:23;;;;;;;7.97;4.88;;;;;;;;;;4938449;29;20055;-58
2023/07/01 02:40:49;;;;;;;9.23;4.28;;;;;;;;;;4939643;28;20043;-58
2023/07/01 02:43:15;;;;;;;7.93;4.28;;;;;;;;;;4935219;29;20042;-58
2023/07/01 02:45:42;;;;;;;7.15;4.13;;;;;;;;;;4939844;28;20047;-58
2023/07/01 02:48:09;;;;;;;6.88;4.38;;;;;;;;;;4932459;29;20048;-57
2023/07/01 02:50:36;;;;;;;10.90;4.45;;;;;;;;;;4933564;29;20044;-58
2023/07/01 02:53:02;;;;;;;8.38;4.50;;;;;;;;;;4934423;29;20047;-58
2023/07/01 02:55:29;;;;;;;8.02;4.57;;;;;;;;;;4935732;28;20040;-59
2023/07/01 02:57:55;;;;;;;8.55;4.50;;;;;;;;;;4949315;28;20059;-59
2023/07/01 03:00:21;;;;;;;12.00;4.68;;;;;;;;;;4937009;29;20047;-59
2023/07/01 03:02:47;;;;;;;8.45;4.35;;;;;;;;;;4934569;29;20054;-60
2023/07/01 03:05:14;;;;;;;7.60;4.07;;;;;;;;;;4949445;28;20054;-59
2023/07/01 03:07:40;;;;;;;7.15;4.13;;;;;;;;;;4930612;29;20474;-59
2023/07/01 03:10:06;;;;;;;6.72;4.40;;;;;;;;;;4932474;29;20035;-59
2023/07/01 03:12:32;;;;;;;10.65;4.43;;;;;;;;;;4934815;28;20058;-59
2023/07/01 03:14:58;;;;;;;7.50;4.25;;;;;;;;;;4935984;29;20420;-59
2023/07/01 03:17:25;;;;;;;6.75;4.05;;;;;;;;;;4949182;28;20036;-59
2023/07/01 03:19:51;;;;;;;6.78;4.15;;;;;;;;;;4950418;28;20043;-59
2023/07/01 03:22:17;;;;;;;9.45;4.57;;;;;;;;;;4934524;29;20055;-59
2023/07/01 03:24:43;;;;;;;7.35;4.60;;;;;;;;;;4950737;28;20102;-59
2023/07/01 03:27:09;;;;;;;7.35;3.97;;;;;;;;;;4934329;29;20042;-59
2023/07/01 03:29:35;;;;;;;19.65;4.68;;;;;;;;;;4949454;28;20035;-60
2023/07/01 03:32:03;;;;;;;6.95;4.57;;;;;;;;;;4933667;29;20043;-59
2023/07/01 03:34:29;;;;;;;8.05;4.40;;;;;;;;;;4933722;29;20398;-59
2023/07/01 03:36:56;;;;;;;8.13;4.55;;;;;;;;;;4934100;29;20040;-59
2023/07/01 03:39:22;;;;;;;7.15;4.18;;;;;;;;;;4934402;29;20523;-59
2023/07/01 03:41:48;;;;;;;7.07;4.60;;;;;;;;;;4933458;29;20510;-59
2023/07/01 03:44:14;;;;;;;10.57;4.97;;;;;;;;;;4932142;29;20112;-59
2023/07/01 03:46:40;;;;;;;7.70;4.47;;;;;;;;;;4943484;29;20398;-59
2023/07/01 03:49:06;;;;;;;7.03;4.40;;;;;;;;;;4937724;28;20501;-59
2023/07/01 03:51:32;;;;;;;6.28;4.38;;;;;;;;;;4933362;29;20031;-59
2023/07/01 03:53:59;;;;;;;8.07;4.53;;;;;;;;;;4934873;29;20403;-59
2023/07/01 03:56:25;;;;;;;6.28;4.25;;;;;;;;;;4946967;28;20051;-59
2023/07/01 03:58:52;;;;;;;8.63;5.00;;;;;;;;;;4933876;29;20520;-58
2023/07/01 04:01:18;;;;;;;9.82;5.03;;;;;;;;;;4938282;28;20063;-57
2023/07/01 04:03:44;;;;;;;7.97;4.50;;;;;;;;;;4937309;29;20429;-58
2023/07/01 04:06:10;;;;;;;6.15;4.30;;;;;;;;;;4938619;28;20048;-58
2023/07/01 04:08:36;;;;;;;8.02;4.97;;;;;;;;;;4933311;29;20359;-58
2023/07/01 04:11:02;;;;;;;7.60;4.85;;;;;;;;;;4934529;28;20048;-58
2023/07/01 04:13:28;;;;;;;7.50;4.40;;;;;;;;;;4931730;29;20047;-57
2023/07/01 04:15:54;;;;;;;7.28;4.68;;;;;;;;;;4932926;29;20540;-58
2023/07/01 04:18:20;;;;;;;9.27;4.47;;;;;;;;;;4934493;29;20485;-58
2023/07/01 04:20:46;;;;;;;7.90;4.30;;;;;;;;;;4934277;29;20039;-59
2023/07/01 04:23:13;;;;;;;8.32;4.18;;;;;;;;;;4933327;29;20082;-58
2023/07/01 04:25:40;;;;;;;10.02;4.90;;;;;;;;;;4932281;29;20043;-58
2023/07/01 04:28:08;;;;;;;10.68;4.90;;;;;;;;;;4935314;29;20511;-58
2023/07/01 04:30:34;;;;;;;10.70;4.93;;;;;;;;;;4933570;28;20051;-58
2023/07/01 04:33:00;;;;;;;7.90;4.55;;;;;;;;;;4937040;29;20391;-58
2023/07/01 04:35:26;;;;;;;7.30;4.47;;;;;;;;;;4934334;29;20052;-59
2023/07/01 04:37:52;;;;;;;16.38;4.50;;;;;;;;;;4933316;29;20046;-59
2023/07/01 04:40:19;;;;;;;6.53;4.25;;;;;;;;;;4934439;29;20051;-59
2023/07/01 04:42:51;;;;;;;7.45;4.45;;;;;;;;;;4933413;28;20052;-58
2023/07/01 04:45:18;;;;;;;7.65;4.00;;;;;;;;;;4949034;28;20520;-59
2023/07/01 04:47:45;;;;;;;8.02;4.53;;;;;;;;;;4933156;29;20055;-58
2023/07/01 04:50:12;;;;;;;7.40;4.20;;;;;;;;;;4932130;29;20035;-59
2023/07/01 04:52:38;;;;;;;8.45;4.90;;;;;;;;;;4932644;28;20051;-59
2023/07/01 04:55:04;;;;;;;6.30;4.43;;;;;;;;;;4946696;28;20039;-59
2023/07/01 04:57:30;;;;;;;6.43;3.72;;;;;;;;;;4949571;28;20051;-58
2023/07/01 04:59:56;;;;;;;5.50;3.75;;;;;;;;;;4934252;29;20413;-59
2023/07/01 05:02:23;;;;;;;7.47;4.38;;;;;;;;;;4937790;28;20050;-58
2023/07/01 05:04:49;;;;;;;6.88;4.60;;;;;;;;;;4939124;28;20429;-56
2023/07/01 05:07:15;;;;;;;6.63;4.15;;;;;;;;;;4939351;29;20058;-59
2023/07/01 05:09:41;;;;;;;7.82;4.75;;;;;;;;;;4940576;29;20039;-59
2023/07/01 05:12:08;;;;;;;8.07;4.93;;;;;;;;;;4937226;29;20413;-59
2023/07/01 05:14:34;;;;;;;7.35;4.63;;;;;;;;;;4936791;28;20494;-59
2023/07/01 05:17:00;;;;;;;7.13;4.05;;;;;;;;;;4943806;28;20046;-60
2023/07/01 05:19:26;;;;;;;8.77;4.68;;;;;;;;;;4941354;29;20031;-60
2023/07/01 05:21:53;;;;;;;7.57;4.47;;;;;;;;;;4936273;29;20035;-59
2023/07/01 05:24:20;;;;;;;5.78;4.03;;;;;;;;;;4936212;29;20055;-59
2023/07/01 05:26:50;;;;;;;9.98;4.47;;;;;;;;;;4937175;29;20043;-58
2023/07/01 05:29:24;;;;;;;7.40;3.97;;;;;;;;;;4937226;29;20062;-59
2023/07/01 05:31:50;;;;;;;6.05;4.18;;;;;;;;;;4951215;28;20035;-59
2023/07/01 05:34:17;;;;;;;6.85;4.22;;;;;;;;;;4938410;28;20043;-59
2023/07/01 05:36:43;;;;;;;6.55;4.63;;;;;;;;;;4954164;28;20050;-58
2023/07/01 05:39:10;;;;;;;8.02;4.28;;;;;;;;;;4936298;29;20397;-59
2023/07/01 05:41:36;;;;;;;7.07;4.22;;;;;;;;;;4938573;29;20031;-60
2023/07/01 05:44:02;;;;;;;7.57;4.47;;;;;;;;;;4936948;29;20032;-58
2023/07/01 05:46:28;;;;;;;6.18;4.22;;;;;;;;;;4935820;29;20039;-59
2023/07/01 05:48:54;;;;;;;7.60;4.32;;;;;;;;;;4935846;29;20034;-58
2023/07/01 05:51:20;;;;;;;8.95;5.05;;;;;;;;;;4935510;29;20517;-58
2023/07/01 05:53:47;;;;;;;10.63;5.60;;;;;;;;;;4934574;29;20044;-58
2023/07/01 05:56:13;;;;;;;7.32;5.10;;;;;;;;;;4934862;29;20055;-59
2023/07/01 05:58:39;;;;;;;7.53;4.70;;;;;;;;;;4935785;29;20040;-58
2023/07/01 06:01:05;;;;;;;8.18;4.90;;;;;;;;;;4937529;29;20051;-58
2023/07/01 06:03:32;;;;;;;12.35;6.25;;;;;;;;;;4948875;28;20059;-58
2023/07/01 06:05:58;;;;;;;9.00;4.78;;;;;;;;;;4935252;28;20050;-59
2023/07/01 06:08:24;;;;;;;9.45;5.00;;;;;;;;;;4935810;29;20067;-58
2023/07/01 06:10:50;;;;;;;10.18;4.38;;;;;;;;;;4933455;29;20032;-58
2023/07/01 06:13:16;;;;;;;11.45;5.45;;;;;;;;;;4931683;29;20513;-60
2023/07/01 06:15:42;;;;;;;9.10;5.43;;;;;;;;;;4936406;28;20055;-60
2023/07/01 06:18:08;;;;;;;9.82;4.95;;;;;;;;;;4935881;28;20062;-60
2023/07/01 06:20:34;;;;;;;12.27;6.05;;;;;;;;;;4935246;28;20047;-61
2023/07/01 06:23:01;;;;;;;8.63;5.13;;;;;;;;;;4934891;29;20635;-59
2023/07/01 06:25:27;;;;;;;9.30;5.35;;;;;;;;;;4936544;29;20548;-61
2023/07/01 06:27:53;;;;;;;10.65;4.80;;;;;;;;;;4933553;29;20032;-61
2023/07/01 06:30:19;;;;;;;8.93;5.18;;;;;;;;;;4934938;29;20035;-61
2023/07/01 06:32:45;;;;;;;7.28;4.90;;;;;;;;;;4934525;29;20035;-58
2023/07/01 06:35:11;;;;;;;10.05;5.35;;;;;;;;;;4931870;29;20047;-59
2023/07/01 06:37:37;;;;;;;9.43;4.82;;;;;;;;;;4934078;29;20044;-59
2023/07/01 06:40:04;;;;;;;9.52;5.05;;;;;;;;;;4933152;29;20042;-59
2023/07/01 06:42:30;;;;;;;12.63;4.82;;;;;;;;;;4933625;29;20032;-59
2023/07/01 06:44:56;;;;;;;9.60;5.40;;;;;;;;;;4936008;29;20035;-59
2023/07/01 06:47:22;;;;;;;6.65;4.60;;;;;;;;;;4935263;28;20047;-59
2023/07/01 06:49:49;;;;;;;8.05;5.07;;;;;;;;;;4935621;28;20063;-59
2023/07/01 06:52:15;;;;;;;8.43;5.10;;;;;;;;;;4934990;28;20056;-59
2023/07/01 06:54:41;;;;;;;10.32;5.13;;;;;;;;;;4933787;29;20413;-58
2023/07/01 06:57:07;;;;;;;14.88;5.32;;;;;;;;;;4933883;29;20038;-59
2023/07/01 06:59:33;;;;;;;7.93;4.78;;;;;;;;;;4935299;29;20040;-59
2023/07/01 07:01:59;;;;;;;12.07;5.20;;;;;;;;;;4933875;29;20413;-58
2023/07/01 07:04:25;;;;;;;9.98;4.82;;;;;;;;;;4935350;28;20528;-59
2023/07/01 07:06:51;;;;;;;11.07;5.57;;;;;;;;;;4935554;29;20386;-59
2023/07/01 07:09:18;;;;;;;6.72;4.80;;;;;;;;;;4939517;28;20051;-59
2023/07/01 07:11:44;;;;;;;7.95;4.68;;;;;;;;;;4933092;29;20035;-58
2023/07/01 07:14:10;;;;;;;9.85;4.72;;;;;;;;;;4936082;29;20044;-58
2023/07/01 07:16:36;;;;;;;9.00;4.70;;;;;;;;;;4933392;29;20035;-58
2023/07/01 07:19:02;;;;;;;8.50;5.10;;;;;;;;;;4934473;29;20050;-59
2023/07/01 07:21:28;;;;;;;7.68;4.70;;;;;;;;;;4935606;29;20047;-59
2023/07/01 07:23:54;;;;;;;9.13;4.80;;;;;;;;;;4933284;29;20058;-59
2023/07/01 07:26:21;;;;;;;8.10;4.55;;;;;;;;;;4932883;29;20027;-59
2023/07/01 07:28:47;;;;;;;14.15;5.07;;;;;;;;;;4955778;28;20036;-59
2023/07/01 07:31:13;;;;;;;10.40;4.30;;;;;;;;;;4934139;29;20409;-59
2023/07/01 07:33:39;;;;;;;9.43;5.00;;;;;;;;;;4932844;29;20043;-59
2023/07/01 07:36:05;;;;;;;7.97;5.00;;;;;;;;;;4937597;29;20051;-60
2023/07/01 07:38:31;;;;;;;8.98;4.43;;;;;;;;;;4934195;29;20051;-59
2023/07/01 07:40:57;;;;;;;11.38;4.55;;;;;;;;;;4936334;28;20048;-59
2023/07/01 07:43:24;;;;;;;8.35;4.57;;;;;;;;;;4935159;29;20048;-59
2023/07/01 07:45:50;;;;;;;8.20;4.40;;;;;;;;;;4934580;28;20048;-58
2023/07/01 07:48:16;;;;;;;10.80;4.45;;;;;;;;;;4938082;29;20043;-58
2023/07/01 07:50:42;;;;;;;27.92;7.50;;;;;;;;;;4937014;29;20039;-59
2023/07/01 07:53:08;;;;;;;10.00;4.50;;;;;;;;;;4937167;29;20379;-59
2023/07/01 07:55:34;;;;;;;6.50;4.18;;;;;;;;;;4934081;29;20034;-59
2023/07/01 07:58:01;;;;;;;18.80;4.55;;;;;;;;;;4932643;29;20040;-59
2023/07/01 08:00:27;;;;;;;12.32;4.60;;;;;;;;;;4933515;29;20071;-58
2023/07/01 08:02:54;;;;;;;16.60;5.40;;;;;;;;;;4932532;29;20048;-59
2023/07/01 08:05:21;;;;;;;8.25;5.00;;;;;;;;;;4937698;29;20039;-58
2023/07/01 08:07:47;;;;;;;7.38;4.30;;;;;;;;;;4934628;28;20052;-58
2023/07/01 08:10:15;;;;;;;10.75;4.45;;;;;;;;;;4940109;28;20051;-59
2023/07/01 08:12:41;;;;;;;5.25;3.90;;;;;;;;;;4932462;29;20046;-59
2023/07/01 08:15:09;;;;;;;8.48;4.55;;;;;;;;;;4934433;29;20067;-58
2023/07/01 08:17:35;;;;;;;8.10;4.53;;;;;;;;;;4935367;28;20501;-58
2023/07/01 08:20:02;;;;;;;8.73;4.82;;;;;;;;;;4937164;28;20055;-58
2023/07/01 08:22:28;;;;;;;7.03;4.53;;;;;;;;;;4938784;29;20039;-58
2023/07/01 08:24:54;;;;;;;8.85;4.65;;;;;;;;;;4933208;29;20027;-58
2023/07/01 08:27:20;;;;;;;12.55;4.78;;;;;;;;;;4934797;29;20058;-60
2023/07/01 08:29:47;;;;;;;8.05;3.90;;;;;;;;;;4936607;29;20035;-59
2023/07/01 08:32:13;;;;;;;9.65;3.72;;;;;;;;;;4935875;29;20035;-57
2023/07/01 08:34:39;;;;;;;8.77;3.90;;;;;;;;;;4933790;28;20047;-59
2023/07/01 08:37:05;;;;;;;8.20;4.10;;;;;;;;;;4938669;29;20047;-60
2023/07/01 08:39:32;;;;;;;6.80;4.40;;;;;;;;;;4934746;29;20027;-59
2023/07/01 08:42:04;;;;;;;11.10;4.38;;;;;;;;;;4932487;29;20036;-59
2023/07/01 08:44:30;;;;;;;9.85;4.40;;;;;;;;;;4932086;29;20043;-59
2023/07/01 08:46:57;;;;;;;8.70;4.32;;;;;;;;;;4936400;29;20035;-58
2023/07/01 08:49:23;;;;;;;8.10;4.40;;;;;;;;;;4933718;29;20050;-59
2023/07/01 08:52:10;;;;;;;13.20;4.40;;;;;;;;;;4934255;29;20493;-59
2023/07/01 08:54:37;;;;;;;9.10;4.40;;;;;;;;;;4933417;29;20429;-59
2023/07/01 08:57:04;;;;;;;8.70;4.38;;;;;;;;;;4936941;29;20066;-59
2023/07/01 08:59:30;;;;;;;11.07;4.30;;;;;;;;;;4935398;29;20039;-60
2023/07/01 09:01:58;;;;;;;8.18;4.43;;;;;;;;;;4933441;28;20058;-59
2023/07/01 09:04:27;;;;;;;10.07;4.70;;;;;;;;;;4934541;29;20039;-59
2023/07/01 09:06:53;;;;;;;8.50;5.18;;;;;;;;;;4932103;29;20382;-59
2023/07/01 09:09:19;;;;;;;11.73;5.03;;;;;;;;;;4933378;29;20036;-60
2023/07/01 09:11:47;;;;;;;8.15;5.13;;;;;;;;;;4934400;29;20058;-59
2023/07/01 09:14:13;;;;;;;9.40;5.07;;;;;;;;;;4931555;29;20401;-59
2023/07/01 09:16:40;;;;;;;13.75;4.95;;;;;;;;;;4932833;29;20048;-59
2023/07/01 09:19:16;;;;;;;11.75;4.88;;;;;;;;;;4932807;29;20046;-59
2023/07/01 09:21:44;;;;;;;10.48;4.68;;;;;;;;;;4930206;29;20047;-60
2023/07/01 09:24:12;;;;;;;10.55;4.85;;;;;;;;;;4930522;29;20031;-59
2023/07/01 09:26:39;;;;;;;8.57;5.10;;;;;;;;;;4932142;29;20042;-59
2023/07/01 09:29:15;;;;;;;11.35;5.45;;;;;;;;;;4932611;29;20414;-59
2023/07/01 09:31:48;;;;;;;10.45;5.43;;;;;;;;;;4932208;29;20040;-58
2023/07/01 09:34:21;;;;;;;13.45;5.40;;;;;;;;;;4932349;29;20034;-59
2023/07/01 09:36:47;;;;;;;10.50;5.30;;;;;;;;;;4933867;29;20042;-60
2023/07/01 09:39:13;;;;;;;11.25;5.47;;;;;;;;;;4933037;29;20048;-61
2023/07/01 09:41:40;;;;;;;15.85;5.30;;;;;;;;;;4935681;29;20039;-60
2023/07/01 09:44:18;;;;;;;9.68;5.75;;;;;;;;;;4936182;28;20406;-58
2023/07/01 09:46:46;;;;;;;10.45;5.47;;;;;;;;;;4931965;29;20039;-58
2023/07/01 09:49:12;;;;;;;9.23;5.50;;;;;;;;;;4935713;29;20047;-59
2023/07/01 09:52:05;;;;;;;9.95;5.22;;;;;;;;;;4935784;29;20039;-60
2023/07/01 09:54:31;;;;;;;9.40;5.25;;;;;;;;;;4933891;29;20047;-59
2023/07/01 09:56:59;;;;;;;9.57;5.13;;;;;;;;;;4937405;28;20051;-59
2023/07/01 09:59:26;;;;;;;8.93;4.88;;;;;;;;;;4935767;29;20034;-59
2023/07/01 10:01:55;;;;;;;10.45;5.25;;;;;;;;;;4935504;29;20046;-58
2023/07/01 10:04:25;;;;;;;11.23;4.85;;;;;;;;;;4935101;29;20035;-59
2023/07/01 10:06:53;;;;;;;10.30;4.72;;;;;;;;;;4935672;29;20027;-60
2023/07/01 10:09:23;;;;;;;9.38;4.85;;;;;;;;;;4934590;29;20055;-60
2023/07/01 10:11:52;;;;;;;9.93;5.03;;;;;;;;;;4938142;29;20043;-61
2023/07/01 10:14:22;;;;;;;7.05;4.25;;;;;;;;;;4934862;29;20496;-59
2023/07/01 10:16:49;;;;;;;10.55;4.75;;;;;;;;;;4936212;28;20055;-59
2023/07/01 10:19:26;;;;;;;11.13;4.50;;;;;;;;;;4935686;29;20032;-59
2023/07/01 10:21:53;;;;;;;8.63;4.43;;;;;;;;;;4935744;29;20038;-58
2023/07/01 10:24:39;;;;;;;11.13;4.97;;;;;;;;;;4935490;29;20031;-59
2023/07/01 10:27:05;;;;;;;7.53;4.25;;;;;;;;;;4935087;29;20505;-58
2023/07/01 10:29:37;;;;;;;12.00;4.90;;;;;;;;;;4937689;28;20505;-59
2023/07/01 10:32:09;;;;;;;9.30;4.90;;;;;;;;;;4936936;29;20043;-59
2023/07/01 10:34:53;;;;;;;9.73;4.72;;;;;;;;;;4934953;29;20531;-59
2023/07/01 10:37:22;;;;;;;10.85;5.07;;;;;;;;;;4936767;29;20036;-59
2023/07/01 10:39:48;;;;;;;11.27;4.43;;;;;;;;;;4942656;28;20051;-59
2023/07/01 10:42:31;;;;;;;13.05;4.80;;;;;;;;;;4934398;29;20294;-59
2023/07/01 10:45:38;;;;;;;14.93;4.85;;;;;;;;;;4937530;29;20035;-59
2023/07/01 10:48:07;;;;;;;8.77;4.63;;;;;;;;;;4932621;29;20046;-58
2023/07/01 10:51:19;;;;;;;7.68;3.97;;;;;;;;;;4934370;28;20402;-59
2023/07/01 10:53:59;;;;;;;10.38;4.28;;;;;;;;;;4931815;29;20537;-59
2023/07/01 10:56:36;;;;;;;12.32;5.13;;;;;;;;;;4933935;29;20521;-59
2023/07/01 10:59:25;;;;;;;11.48;4.95;;;;;;;;;;4936172;29;20058;-59
2023/07/01 11:01:56;;;;;;;;;;;;;;;;;;4935002;29;20047;-59
2023/07/01 11:04:24;;;;;;;24.10;5.00;;;;;;;;;;4933515;28;20051;-59
2023/07/01 11:06:55;;;;;;;10.63;4.68;;;;;;;;;;4935791;29;20039;-59
2023/07/01 11:09:32;;;;;;;8.82;4.68;;;;;;;;;;4936183;28;20043;-59
2023/07/01 11:12:00;;;;;;;9.23;4.60;;;;;;;;;;4934505;29;20062;-59
2023/07/01 11:14:38;;;;;;;9.87;4.87;;;;;;;;;;4949012;28;20039;-58
2023/07/01 11:17:08;;;;;;;7.70;4.67;;;;;;;;;;4933196;29;20327;-58
2023/07/01 11:19:35;;;;;;;10.30;4.95;;;;;;;;;;4935257;28;20047;-59
2023/07/01 11:22:02;;;;;;;10.30;4.68;;;;;;;;;;4933657;29;20035;-59
2023/07/01 11:24:32;;;;;;;9.18;5.57;;;;;;;;;;4934642;28;20058;-59
2023/07/01 11:27:08;;;;;;;10.85;4.88;;;;;;;;;;4935077;29;20028;-59
2023/07/01 11:29:36;;;;;;;8.57;4.82;;;;;;;;;;4934379;29;20036;-60
2023/07/01 11:32:05;;;;;;;9.35;4.63;;;;;;;;;;4933200;28;20050;-59
2023/07/01 11:34:32;;;;;;;7.97;4.53;;;;;;;;;;4949827;28;20051;-59
2023/07/01 11:36:59;;;;;;;9.63;4.25;;;;;;;;;;4933639;29;20035;-61
2023/07/01 11:39:26;;;;;;;12.23;5.40;;;;;;;;;;4935189;28;20043;-59
2023/07/01 11:41:55;;;;;;;10.10;5.43;;;;;;;;;;4934572;29;20056;-59
2023/07/01 11:44:25;;;;;;;8.40;4.60;;;;;;;;;;4935178;29;20058;-59
2023/07/01 11:46:52;;;;;;;11.63;4.82;;;;;;;;;;4931140;29;20060;-59
2023/07/01 11:49:21;;;;;;;10.15;5.13;;;;;;;;;;4934058;28;20048;-59
2023/07/01 11:51:55;;;;;;;10.38;4.75;;;;;;;;;;4935431;29;20039;-60
2023/07/01 11:54:23;;;;;;;7.80;4.38;;;;;;;;;;4936990;29;20035;-59
2023/07/01 11:57:06;;;;;;;7.95;3.97;;;;;;;;;;4935166;28;20059;-59
2023/07/01 11:59:33;;;;;;;15.95;4.53;;;;;;;;;;4931948;29;20386;-58
2023/07/01 12:02:00;;;;;;;12.00;5.22;;;;;;;;;;4934602;29;20425;-59
2023/07/01 12:04:29;;;;;;;9.60;4.20;;;;;;;;;;4932506;29;20055;-59
2023/07/01 12:07:05;;;;;;;9.63;4.45;;;;;;;;;;4935102;29;20047;-60
2023/07/01 12:09:31;;;;;;;14.65;5.10;;;;;;;;;;4932447;29;20054;-61
2023/07/01 12:11:57;;;;;;;8.52;4.45;;;;;;;;;;4938067;28;20597;-60
2023/07/01 12:14:24;;;;;;;8.82;4.28;;;;;;;;;;4938089;28;20047;-61
2023/07/01 12:16:51;;;;;;;14.88;4.75;;;;;;;;;;4933457;29;20043;-59
2023/07/01 12:19:21;;;;;;;7.63;4.53;;;;;;;;;;4934774;29;20054;-60
2023/07/01 12:21:48;;;;;;;11.35;4.45;;;;;;;;;;4932939;29;20050;-61
2023/07/01 12:24:32;;;;;;;14.35;4.40;;;;;;;;;;4932496;29;20039;-60
2023/07/01 12:27:00;;;;;;;9.15;4.10;;;;;;;;;;4939227;29;20044;-60
2023/07/01 12:29:27;;;;;;;7.75;4.80;;;;;;;;;;4933176;29;20055;-60
2023/07/01 12:31:53;;;;;;;9.05;4.47;;;;;;;;;;4934141;28;20078;-60
2023/07/01 12:34:22;;;;;;;14.00;5.03;;;;;;;;;;4933136;29;20536;-60
2023/07/01 12:36:48;;;;;;;10.80;4.82;;;;;;;;;;4946973;28;20062;-60
2023/07/01 12:39:17;;;;;;;8.88;4.30;;;;;;;;;;4935921;28;20051;-59
2023/07/01 12:41:47;;;;;;;12.13;4.00;;;;;;;;;;4930677;29;20043;-61
2023/07/01 12:44:14;;;;;;;12.55;4.18;;;;;;;;;;4934598;28;20501;-61
2023/07/01 12:46:43;;;;;;;8.25;4.07;;;;;;;;;;4935036;29;20035;-61
2023/07/01 12:49:10;;;;;;;6.63;3.90;;;;;;;;;;4933725;29;20035;-60
2023/07/01 12:51:37;;;;;;;9.35;3.97;;;;;;;;;;4932140;29;20059;-61
2023/07/01 12:54:04;;;;;;;7.25;3.38;;;;;;;;;;4931258;28;20505;-60
2023/07/01 12:56:31;;;;;;;11.40;3.72;;;;;;;;;;4932716;29;20194;-61
2023/07/01 12:58:57;;;;;;;8.30;3.35;;;;;;;;;;4937420;29;20494;-61
2023/07/01 13:01:23;;;;;;;8.32;3.35;;;;;;;;;;4932852;29;20047;-61
2023/07/01 13:03:49;;;;;;;9.23;3.55;;;;;;;;;;4931879;29;20043;-61
2023/07/01 13:06:22;;;;;;;10.65;3.58;;;;;;;;;;4932194;29;20027;-61
2023/07/01 13:08:50;;;;;;;19.98;3.40;;;;;;;;;;4931880;29;20036;-61
2023/07/01 13:11:16;;;;;;;7.15;3.15;;;;;;;;;;4933478;29;20062;-61
2023/07/01 13:13:43;;;;;;;7.43;3.30;;;;;;;;;;4931605;29;20035;-61
2023/07/01 13:16:34;;;;;;;11.90;3.60;;;;;;;;;;4932794;29;20044;-61
2023/07/01 13:19:12;;;;;;;6.20;3.20;;;;;;;;;;4933262;29;20040;-61
2023/07/01 13:21:40;;;;;;;7.60;2.92;;;;;;;;;;4935312;29;20027;-61
2023/07/01 13:24:09;;;;;;;6.70;2.90;;;;;;;;;;4940832;28;20043;-61
2023/07/01 13:26:37;;;;;;;6.80;3.10;;;;;;;;;;4939463;29;20027;-61
2023/07/01 13:29:04;;;;;;;5.72;3.15;;;;;;;;;;4937717;28;20047;-61
2023/07/01 13:31:30;;;;;;;4.85;2.90;;;;;;;;;;4935776;29;20489;-61
2023/07/01 13:34:05;;;;;;;7.68;2.92;;;;;;;;;;4936062;28;20529;-61
2023/07/01 13:36:37;;;;;;;7.97;3.47;;;;;;;;;;4942237;29;20043;-61
2023/07/01 13:39:08;;;;;;;7.85;3.08;;;;;;;;;;4936746;28;20074;-61
2023/07/01 13:41:35;;;;;;;9.70;2.83;;;;;;;;;;4936361;29;20040;-62
2023/07/01 13:44:03;;;;;;;5.55;2.47;;;;;;;;;;4935402;29;20054;-61
2023/07/01 13:46:37;;;;;;;6.70;2.88;;;;;;;;;;4937607;29;20057;-59
2023/07/01 13:49:08;;;;;;;8.10;3.00;;;;;;;;;;4936100;29;20047;-61
2023/07/01 13:51:36;;;;;;;11.10;2.95;;;;;;;;;;4934937;29;20059;-61
2023/07/01 13:54:07;;;;;;;6.50;2.78;;;;;;;;;;4938195;28;20050;-61
2023/07/01 13:56:37;;;;;;;7.13;2.75;;;;;;;;;;4936002;29;20055;-59
2023/07/01 13:59:03;;;;;;;4.88;2.47;;;;;;;;;;4935697;28;20058;-62
2023/07/01 14:01:30;;;;;;;9.20;2.50;;;;;;;;;;4937293;29;20031;-61
2023/07/01 14:04:00;;;;;;;8.35;2.30;;;;;;;;;;4935734;29;20422;-61
2023/07/01 14:06:30;;;;;;;6.90;2.55;;;;;;;;;;4939956;29;20039;-62
2023/07/01 14:08:56;;;;;;;6.20;2.63;;;;;;;;;;4934756;29;20032;-61
2023/07/01 14:11:28;;;;;;;6.90;2.72;;;;;;;;;;4935946;29;20042;-62
2023/07/01 14:13:59;;;;;;;4.93;2.40;;;;;;;;;;4934607;28;20043;-61
2023/07/01 14:16:26;;;;;;;8.35;2.63;;;;;;;;;;4936640;29;20543;-62
2023/07/01 14:18:53;;;;;;;4.93;2.50;;;;;;;;;;4934522;29;20062;-62
2023/07/01 14:21:22;;;;;;;7.50;2.92;;;;;;;;;;4936700;29;20031;-62
2023/07/01 14:23:54;;;;;;;4.55;2.60;;;;;;;;;;4932281;29;20051;-61
2023/07/01 14:26:25;;;;;;;4.25;2.55;;;;;;;;;;4938555;29;20500;-62
2023/07/01 14:28:52;;;;;;;4.28;2.60;;;;;;;;;;4933661;29;20055;-62
2023/07/01 14:31:36;;;;;;;5.43;2.70;;;;;;;;;;4935327;29;20052;-62
2023/07/01 14:34:04;;;;;;;12.48;6.28;;;;;;;;;;4931302;29;20036;-62
2023/07/01 14:36:32;;;;;;;13.15;4.63;;;;;;;;;;4934490;29;20035;-62
2023/07/01 14:39:00;;;;;;;7.60;3.53;;;;;;;;;;4949927;28;20050;-62
2023/07/01 14:41:34;;;;;;;7.15;3.53;;;;;;;;;;4937705;28;20413;-61
2023/07/01 14:44:03;;;;;;;6.60;3.25;;;;;;;;;;4931516;29;20035;-62
2023/07/01 14:46:32;;;;;;;6.18;3.53;;;;;;;;;;4937384;29;20394;-61
2023/07/01 14:48:58;;;;;;;6.13;3.13;;;;;;;;;;4933445;29;20039;-61